Time;durP1;ratioP1;P1;durP2;ratioP2;P2;SDS_P1;SDS_P2;PMS_P1;PMS_P2;Temp;Humidity;BMP_temperature;BMP_pressure;BME280_temperature;BME280_humidity;BME280_pressure;Samples;Min_cycle;Max_cycle;Signal;HPM_P1;HPM_P2
2023/04/24 00:00:47;;;;;;;5.30;4.30;;;12.50;60.70;;;;;;5024111;28;20033;-61
2023/04/24 00:03:13;;;;;;;5.00;4.18;;;12.50;60.80;;;;;;5018496;28;20104;-61
2023/04/24 00:05:40;;;;;;;5.65;4.40;;;12.50;60.90;;;;;;5031844;28;20075;-61
2023/04/24 00:08:06;;;;;;;5.63;4.30;;;12.40;61.00;;;;;;5032225;28;20033;-61
2023/04/24 00:10:31;;;;;;;5.75;3.72;;;12.40;61.20;;;;;;5031465;28;20026;-61
2023/04/24 00:12:57;;;;;;;4.72;3.92;;;12.40;61.20;;;;;;5032415;28;20033;-61
2023/04/24 00:15:23;;;;;;;5.35;4.05;;;12.40;61.20;;;;;;5031510;28;20036;-61
2023/04/24 00:17:48;;;;;;;5.47;4.10;;;12.40;61.30;;;;;;5031947;28;20026;-61
2023/04/24 00:20:15;;;;;;;5.57;4.00;;;12.40;61.40;;;;;;5031839;28;20129;-61
2023/04/24 00:22:41;;;;;;;4.38;3.97;;;12.40;61.60;;;;;;5031990;28;20083;-61
2023/04/24 00:25:07;;;;;;;4.43;3.75;;;12.30;61.60;;;;;;5031640;28;20033;-60
2023/04/24 00:27:32;;;;;;;6.40;4.13;;;12.30;61.60;;;;;;5031728;28;20032;-61
2023/04/24 00:29:58;;;;;;;5.90;4.22;;;12.30;61.70;;;;;;5029941;28;20104;-61
2023/04/24 00:32:24;;;;;;;6.60;4.18;;;12.30;61.90;;;;;;5031415;28;20029;-61
2023/04/24 00:34:49;;;;;;;6.22;4.05;;;12.30;61.90;;;;;;5030894;28;20025;-62
2023/04/24 00:37:15;;;;;;;5.07;4.15;;;12.30;61.90;;;;;;5031592;28;20029;-58
2023/04/24 00:39:41;;;;;;;4.47;3.75;;;12.30;62.00;;;;;;5031422;28;20037;-59
2023/04/24 00:42:07;;;;;;;4.78;3.72;;;12.30;62.10;;;;;;5031953;28;20054;-62
2023/04/24 00:44:35;;;;;;;4.57;3.88;;;12.30;62.20;;;;;;5031174;28;20086;-63
2023/04/24 00:47:01;;;;;;;4.65;3.70;;;12.30;62.30;;;;;;5032792;28;20044;-57
2023/04/24 00:49:27;;;;;;;4.60;3.38;;;12.30;62.40;;;;;;5023199;28;21087;-57
2023/04/24 00:51:53;;;;;;;5.40;3.90;;;12.30;62.50;;;;;;5041105;28;20033;-55
2023/04/24 00:54:19;;;;;;;5.20;4.05;;;12.30;62.50;;;;;;5034800;28;20535;-60
2023/04/24 00:56:46;;;;;;;4.93;3.75;;;12.20;62.60;;;;;;5031440;28;20040;-63
2023/04/24 00:59:13;;;;;;;5.80;3.92;;;12.20;62.70;;;;;;5029019;28;20037;-63
2023/04/24 01:01:41;;;;;;;5.50;4.50;;;12.20;62.80;;;;;;5031421;28;20028;-63
2023/04/24 01:04:08;;;;;;;4.97;4.18;;;12.20;63.50;;;;;;5031176;28;20187;-63
2023/04/24 01:06:34;;;;;;;4.80;4.15;;;12.10;62.90;;;;;;5030988;28;20439;-63
2023/04/24 01:09:00;;;;;;;7.00;4.45;;;12.20;63.10;;;;;;5031230;28;20032;-63
2023/04/24 01:11:26;;;;;;;6.30;4.85;;;12.20;63.20;;;;;;5030468;28;20021;-57
2023/04/24 01:13:52;;;;;;;5.63;4.28;;;12.20;63.30;;;;;;5030965;28;20372;-56
2023/04/24 01:16:20;;;;;;;7.32;4.53;;;12.20;63.40;;;;;;5030190;28;20025;-62
2023/04/24 01:18:46;;;;;;;5.82;5.00;;;12.20;63.60;;;;;;5030371;28;20109;-62
2023/04/24 01:21:16;;;;;;;5.57;4.30;;;12.20;63.80;;;;;;5029766;28;20032;-61
2023/04/24 01:23:43;;;;;;;5.97;4.88;;;12.20;64.00;;;;;;5030756;28;20456;-61
2023/04/24 01:26:08;;;;;;;7.53;4.85;;;12.20;64.00;;;;;;5030287;28;20029;-63
2023/04/24 01:28:34;;;;;;;7.28;4.90;;;12.20;64.10;;;;;;5019722;28;20408;-63
2023/04/24 01:31:00;;;;;;;6.40;4.75;;;12.10;64.20;;;;;;5028066;28;20033;-62
2023/04/24 01:33:26;;;;;;;6.50;4.80;;;12.10;64.40;;;;;;5030204;28;20029;-62
2023/04/24 01:35:52;;;;;;;6.93;5.20;;;12.10;64.40;;;;;;5017105;28;20025;-62
2023/04/24 01:38:17;;;;;;;6.70;5.63;;;12.10;64.50;;;;;;5030243;28;20034;-62
2023/04/24 01:40:43;;;;;;;7.63;5.78;;;12.10;65.40;;;;;;5029770;28;20088;-63
2023/04/24 01:43:09;;;;;;;7.82;5.70;;;12.10;65.10;;;;;;5030538;28;20056;-62
2023/04/24 01:45:34;;;;;;;8.25;5.70;;;12.10;65.20;;;;;;5029899;28;20112;-57
2023/04/24 01:48:00;;;;;;;6.47;5.00;;;12.10;65.20;;;;;;5038154;28;20483;-58
2023/04/24 01:50:26;;;;;;;6.82;5.47;;;12.00;65.30;;;;;;5030640;28;20372;-63
2023/04/24 01:52:52;;;;;;;8.63;5.75;;;12.00;65.40;;;;;;5029428;28;20033;-63
2023/04/24 01:55:18;;;;;;;7.32;5.18;;;12.00;65.50;;;;;;5029669;28;20072;-59
2023/04/24 01:57:43;;;;;;;7.53;5.50;;;11.90;65.50;;;;;;5029129;28;20065;-61
2023/04/24 02:00:11;;;;;;;7.80;5.75;;;11.90;65.80;;;;;;5030236;28;20026;-62
2023/04/24 02:02:38;;;;;;;6.72;6.03;;;11.90;65.90;;;;;;5029922;28;20021;-58
2023/04/24 02:05:06;;;;;;;9.15;6.32;;;11.90;66.50;;;;;;5029271;28;20064;-57
2023/04/24 02:07:32;;;;;;;7.30;5.95;;;11.90;65.90;;;;;;5030076;28;20045;-58
2023/04/24 02:09:58;;;;;;;9.40;6.78;;;11.90;65.80;;;;;;5030861;28;20167;-58
2023/04/24 02:12:24;;;;;;;9.80;6.65;;;11.90;65.90;;;;;;5033418;28;20507;-63
2023/04/24 02:14:50;;;;;;;10.02;7.22;;;11.90;66.10;;;;;;5033387;28;20144;-63
2023/04/24 02:17:16;;;;;;;10.45;7.63;;;11.90;66.30;;;;;;5033484;28;20072;-58
2023/04/24 02:19:41;;;;;;;9.77;7.80;;;11.90;66.50;;;;;;5033454;28;20023;-57
2023/04/24 02:22:07;;;;;;;9.70;7.40;;;11.90;66.60;;;;;;5033624;28;20029;-63
2023/04/24 02:24:32;;;;;;;11.25;7.72;;;11.90;66.80;;;;;;5032806;28;20029;-63
2023/04/24 02:26:58;;;;;;;8.90;7.05;;;11.80;66.70;;;;;;5023506;28;20033;-57
2023/04/24 02:29:24;;;;;;;10.45;7.47;;;11.80;66.70;;;;;;5030390;28;20223;-58
2023/04/24 02:31:49;;;;;;;7.95;6.35;;;11.80;66.70;;;;;;5033804;28;20051;-62
2023/04/24 02:34:16;;;;;;;9.05;6.43;;;11.80;66.80;;;;;;5033138;28;20036;-63
2023/04/24 02:36:41;;;;;;;9.75;7.10;;;11.80;66.90;;;;;;5033696;28;20108;-63
2023/04/24 02:39:07;;;;;;;7.78;6.82;;;11.80;66.90;;;;;;5032651;28;20539;-63
2023/04/24 02:41:33;;;;;;;9.80;7.55;;;11.70;67.40;;;;;;5033299;28;20133;-61
2023/04/24 02:43:59;;;;;;;11.95;7.45;;;11.80;66.80;;;;;;5033010;28;20112;-62
2023/04/24 02:46:25;;;;;;;9.02;7.20;;;11.70;66.80;;;;;;5033022;28;20064;-63
2023/04/24 02:48:51;;;;;;;9.40;7.28;;;11.70;67.00;;;;;;5029191;28;20025;-62
2023/04/24 02:51:17;;;;;;;9.82;7.32;;;11.70;67.10;;;;;;5029613;28;20485;-62
2023/04/24 02:53:43;;;;;;;10.98;7.78;;;11.70;67.10;;;;;;5046960;28;20365;-63
2023/04/24 02:56:12;;;;;;;12.07;7.85;;;11.70;67.10;;;;;;5033563;28;20040;-63
2023/04/24 02:58:37;;;;;;;8.30;6.93;;;11.60;67.20;;;;;;5032271;28;20034;-63
2023/04/24 03:01:03;;;;;;;10.50;6.65;;;11.70;67.30;;;;;;5033580;28;20037;-61
2023/04/24 03:03:29;;;;;;;7.93;6.53;;;11.70;67.40;;;;;;5032435;28;20029;-61
2023/04/24 03:05:56;;;;;;;9.65;7.38;;;11.70;67.50;;;;;;5032279;28;20029;-61
2023/04/24 03:08:22;;;;;;;9.20;6.90;;;11.70;67.70;;;;;;5031385;28;20029;-61
2023/04/24 03:10:48;;;;;;;10.95;7.93;;;11.70;67.90;;;;;;5032040;28;20415;-63
2023/04/24 03:13:14;;;;;;;10.43;6.80;;;11.70;68.00;;;;;;5031240;28;20033;-62
2023/04/24 03:15:40;;;;;;;10.15;7.57;;;11.70;68.10;;;;;;5032835;28;20040;-62
2023/04/24 03:18:06;;;;;;;9.85;7.40;;;11.70;68.30;;;;;;5032450;28;20456;-62
2023/04/24 03:20:31;;;;;;;10.32;7.70;;;11.70;68.50;;;;;;5032248;28;20067;-62
2023/04/24 03:22:57;;;;;;;13.73;9.52;;;11.80;68.80;;;;;;5030923;28;20026;-62
2023/04/24 03:25:23;;;;;;;13.10;9.38;;;11.80;68.80;;;;;;5031894;28;20025;-57
2023/04/24 03:27:48;;;;;;;12.10;9.00;;;11.90;68.70;;;;;;5032150;28;20483;-57
2023/04/24 03:30:14;;;;;;;11.85;9.15;;;11.90;68.70;;;;;;5032339;28;20037;-62
2023/04/24 03:32:39;;;;;;;10.18;8.15;;;12.00;68.90;;;;;;5032425;28;20114;-62
2023/04/24 03:35:08;;;;;;;9.20;6.40;;;12.00;68.80;;;;;;5030495;28;20033;-62
2023/04/24 03:37:33;;;;;;;8.90;7.18;;;12.00;68.70;;;;;;5030278;28;20376;-62
2023/04/24 03:39:59;;;;;;;7.63;5.78;;;12.10;68.40;;;;;;5032132;28;20029;-62
2023/04/24 03:42:25;;;;;;;8.93;7.20;;;12.20;69.00;;;;;;5032033;28;20088;-62
2023/04/24 03:44:50;;;;;;;8.85;7.15;;;12.20;68.30;;;;;;5031639;28;20468;-62
2023/04/24 03:47:16;;;;;;;7.60;6.25;;;12.30;68.20;;;;;;5031802;28;20037;-62
2023/04/24 03:49:42;;;;;;;8.45;6.22;;;12.40;68.10;;;;;;5031913;28;20029;-62
2023/04/24 03:52:07;;;;;;;10.77;6.90;;;12.60;68.00;;;;;;5034404;28;20044;-62
2023/04/24 03:54:33;;;;;;;9.95;6.82;;;12.70;68.10;;;;;;5031611;28;20033;-62
2023/04/24 03:56:58;;;;;;;8.18;6.38;;;12.90;68.30;;;;;;5032148;28;20029;-64
2023/04/24 03:59:24;;;;;;;8.25;6.55;;;13.20;68.40;;;;;;5031537;28;20032;-64
2023/04/24 04:01:50;;;;;;;8.80;6.30;;;13.40;68.30;;;;;;5026958;28;20076;-59
2023/04/24 04:04:15;;;;;;;10.10;6.72;;;13.60;67.90;;;;;;5024490;28;20079;-57
2023/04/24 04:06:42;;;;;;;10.60;7.45;;;13.90;67.20;;;;;;5030940;28;20065;-57
2023/04/24 04:09:08;;;;;;;9.57;7.03;;;14.10;66.50;;;;;;5031737;28;20033;-59
2023/04/24 04:11:35;;;;;;;9.90;7.10;;;14.20;65.80;;;;;;5029750;28;20029;-58
2023/04/24 04:14:00;;;;;;;9.85;7.22;;;14.40;65.30;;;;;;5031654;28;20036;-57
2023/04/24 04:16:26;;;;;;;14.20;7.93;;;14.50;64.90;;;;;;5030730;28;20460;-57
2023/04/24 04:18:52;;;;;;;9.63;6.53;;;14.50;64.40;;;;;;5031707;28;20025;-57
2023/04/24 04:21:17;;;;;;;8.45;6.70;;;14.60;64.20;;;;;;5030441;28;20029;-58
2023/04/24 04:23:43;;;;;;;8.27;5.93;;;14.70;63.90;;;;;;5031752;28;20079;-57
2023/04/24 04:26:09;;;;;;;7.97;6.18;;;14.80;63.70;;;;;;5030600;28;20033;-60
2023/04/24 04:28:34;;;;;;;7.95;5.97;;;14.90;63.50;;;;;;5030355;28;20034;-58
2023/04/24 04:31:00;;;;;;;7.03;5.88;;;15.00;63.20;;;;;;5030171;28;20063;-57
2023/04/24 04:33:26;;;;;;;6.93;5.57;;;15.20;63.10;;;;;;5030935;28;20053;-57
2023/04/24 04:35:52;;;;;;;6.55;5.15;;;15.30;62.50;;;;;;5030981;28;20068;-57
2023/04/24 04:38:19;;;;;;;6.68;5.05;;;15.50;62.30;;;;;;5030865;28;20029;-59
2023/04/24 04:40:45;;;;;;;7.35;5.35;;;15.60;61.90;;;;;;5027873;28;20153;-57
2023/04/24 04:43:13;;;;;;;7.30;4.72;;;15.80;61.80;;;;;;5021728;28;20491;-59
2023/04/24 04:45:40;;;;;;;7.68;4.82;;;15.90;61.30;;;;;;5030287;28;20021;-57
2023/04/24 04:48:07;;;;;;;6.93;4.57;;;16.10;61.10;;;;;;5031164;28;20456;-57
2023/04/24 04:50:33;;;;;;;6.47;4.72;;;16.30;60.90;;;;;;5030115;28;20033;-57
2023/04/24 04:52:59;;;;;;;7.20;4.95;;;16.40;60.60;;;;;;5030839;28;20521;-58
2023/04/24 04:55:25;;;;;;;7.85;4.78;;;16.50;60.40;;;;;;5029571;28;20033;-60
2023/04/24 04:57:51;;;;;;;6.57;4.88;;;16.60;60.00;;;;;;5030789;28;20609;-58
2023/04/24 05:00:17;;;;;;;5.97;4.65;;;16.70;59.90;;;;;;5030811;28;20259;-59
2023/04/24 05:02:43;;;;;;;8.23;5.18;;;16.90;60.10;;;;;;5029937;28;20208;-58
2023/04/24 05:05:09;;;;;;;5.70;4.70;;;17.20;59.70;;;;;;5029729;28;20103;-58
2023/04/24 05:07:35;;;;;;;7.32;4.57;;;17.30;59.20;;;;;;5030518;28;20052;-58
2023/04/24 05:10:00;;;;;;;6.78;5.18;;;17.60;59.00;;;;;;5030879;28;20029;-57
2023/04/24 05:12:26;;;;;;;6.63;4.57;;;17.80;58.50;;;;;;5026914;28;20041;-58
2023/04/24 05:14:52;;;;;;;9.02;4.90;;;18.00;58.40;;;;;;5030289;28;20026;-59
2023/04/24 05:17:18;;;;;;;7.20;4.85;;;18.30;58.20;;;;;;5030347;28;20491;-58
2023/04/24 05:19:44;;;;;;;10.02;5.10;;;18.70;57.70;;;;;;5030635;28;20029;-57
2023/04/24 05:22:10;;;;;;;7.90;5.45;;;19.20;57.60;;;;;;5029231;28;20028;-58
2023/04/24 05:24:36;;;;;;;7.95;5.53;;;19.70;57.20;;;;;;5029760;28;20021;-60
2023/04/24 05:27:05;;;;;;;7.97;5.43;;;20.30;56.30;;;;;;5023606;28;20519;-58
2023/04/24 05:29:32;;;;;;;7.65;5.65;;;21.00;55.00;;;;;;5025188;28;20422;-58
2023/04/24 05:31:58;;;;;;;8.70;5.45;;;21.50;53.50;;;;;;5025844;28;20376;-63
2023/04/24 05:34:24;;;;;;;6.05;4.38;;;21.70;52.20;;;;;;5023801;28;20041;-62
2023/04/24 05:36:50;;;;;;;5.18;4.03;;;21.60;51.60;;;;;;5027523;28;20033;-63
2023/04/24 05:39:16;;;;;;;4.07;3.67;;;21.20;51.50;;;;;;5029556;28;20030;-63
2023/04/24 05:41:42;;;;;;;5.93;4.20;;;20.70;51.90;;;;;;5028189;28;20061;-62
2023/04/24 05:44:07;;;;;;;7.25;4.13;;;20.20;52.50;;;;;;5027680;28;20030;-62
2023/04/24 05:46:33;;;;;;;7.07;4.75;;;19.70;53.00;;;;;;5038844;28;20041;-62
2023/04/24 05:48:59;;;;;;;7.05;4.78;;;19.40;53.60;;;;;;5033448;28;20029;-63
2023/04/24 05:51:25;;;;;;;9.00;5.35;;;19.00;54.10;;;;;;5033785;28;20120;-62
2023/04/24 05:53:51;;;;;;;6.68;4.90;;;18.80;54.80;;;;;;5030950;28;20479;-62
2023/04/24 05:56:17;;;;;;;6.57;4.70;;;18.60;55.40;;;;;;5025815;28;20042;-63
2023/04/24 05:58:43;;;;;;;7.38;5.30;;;18.40;55.60;;;;;;5028472;28;20030;-63
2023/04/24 06:01:09;;;;;;;6.60;5.10;;;18.20;55.90;;;;;;5030585;28;20036;-58
2023/04/24 06:03:35;;;;;;;5.65;4.57;;;18.00;56.20;;;;;;5030189;28;20375;-58
2023/04/24 06:06:00;;;;;;;7.30;4.70;;;17.90;56.60;;;;;;5028595;28;20033;-57
2023/04/24 06:08:26;;;;;;;7.15;3.95;;;17.70;56.60;;;;;;5029488;28;20057;-55
2023/04/24 06:10:52;;;;;;;6.32;4.28;;;17.60;56.90;;;;;;5035488;28;20030;-66
2023/04/24 06:13:17;;;;;;;5.00;3.60;;;17.40;57.20;;;;;;5029115;28;20037;-63
2023/04/24 06:15:43;;;;;;;5.32;3.92;;;17.30;57.10;;;;;;5044613;28;20063;-60
2023/04/24 06:18:12;;;;;;;4.10;3.70;;;17.30;57.20;;;;;;5024930;28;20107;-60
2023/04/24 06:20:38;;;;;;;5.50;3.60;;;17.20;57.30;;;;;;5015253;28;20045;-58
2023/04/24 06:23:04;;;;;;;5.65;3.70;;;17.10;57.40;;;;;;5017777;28;20037;-60
2023/04/24 06:25:30;;;;;;;4.90;4.00;;;17.00;58.00;;;;;;5013841;28;20064;-58
2023/04/24 06:27:56;;;;;;;6.68;3.92;;;17.00;58.20;;;;;;5019678;28;20124;-57
2023/04/24 06:30:22;;;;;;;5.82;4.50;;;17.00;58.60;;;;;;5023897;28;20033;-59
2023/04/24 06:32:48;;;;;;;5.55;4.03;;;17.00;58.70;;;;;;5025499;28;20097;-61
2023/04/24 06:35:13;;;;;;;6.88;4.30;;;16.90;58.70;;;;;;5027344;28;20068;-59
2023/04/24 06:37:41;;;;;;;5.10;4.10;;;16.90;58.90;;;;;;5014754;28;20037;-60
2023/04/24 06:40:07;;;;;;;8.05;4.70;;;16.90;59.20;;;;;;5016523;28;20149;-57
2023/04/24 06:42:33;;;;;;;6.30;4.40;;;16.90;59.50;;;;;;5019057;28;20046;-60
2023/04/24 06:44:59;;;;;;;6.47;4.47;;;16.90;59.70;;;;;;5011495;28;20108;-57
2023/04/24 06:47:24;;;;;;;6.18;4.63;;;17.00;60.10;;;;;;5013379;28;20041;-58
2023/04/24 06:49:52;;;;;;;5.60;4.30;;;17.00;60.60;;;;;;5021130;28;20510;-58
2023/04/24 06:52:18;;;;;;;5.70;4.38;;;17.00;60.50;;;;;;5026517;28;20036;-62
2023/04/24 06:54:44;;;;;;;6.18;4.57;;;17.00;60.60;;;;;;5018688;28;20060;-62
2023/04/24 06:57:10;;;;;;;5.75;4.20;;;17.00;60.50;;;;;;5006214;28;20037;-61
2023/04/24 06:59:36;;;;;;;5.97;3.92;;;17.00;60.70;;;;;;5003173;28;20087;-60
2023/04/24 07:02:02;;;;;;;5.28;4.35;;;17.00;61.00;;;;;;5008412;28;20026;-62
2023/04/24 07:04:28;;;;;;;6.43;4.15;;;17.00;61.10;;;;;;5023240;28;20032;-63
2023/04/24 07:06:55;;;;;;;5.95;4.10;;;17.10;61.10;;;;;;5014300;28;20036;-64
2023/04/24 07:09:22;;;;;;;6.88;4.50;;;17.10;60.90;;;;;;5015081;28;20030;-63
2023/04/24 07:11:48;;;;;;;5.60;3.70;;;17.10;61.10;;;;;;5005648;28;20029;-59
2023/04/24 07:14:13;;;;;;;5.60;3.83;;;17.10;61.80;;;;;;5015201;28;20045;-61
2023/04/24 07:16:39;;;;;;;4.80;3.70;;;17.10;60.80;;;;;;5012567;28;20475;-59
2023/04/24 07:19:05;;;;;;;4.03;3.63;;;17.10;60.80;;;;;;5024529;28;20061;-61
2023/04/24 07:21:31;;;;;;;5.47;3.97;;;17.10;60.70;;;;;;5014703;28;20032;-62
2023/04/24 07:24:00;;;;;;;3.92;3.53;;;17.10;60.80;;;;;;5013988;28;21843;-63
2023/04/24 07:26:28;;;;;;;4.60;3.60;;;17.10;60.80;;;;;;5006348;28;20157;-60
2023/04/24 07:28:54;;;;;;;5.00;3.67;;;17.20;60.90;;;;;;4994115;28;20109;-62
2023/04/24 07:31:20;;;;;;;4.20;3.40;;;17.20;60.90;;;;;;4986121;28;20464;-60
2023/04/24 07:33:46;;;;;;;4.60;3.35;;;17.10;60.70;;;;;;4995800;28;20604;-60
2023/04/24 07:36:15;;;;;;;5.15;3.65;;;17.20;60.60;;;;;;5009328;28;20045;-63
2023/04/24 07:38:42;;;;;;;4.43;3.47;;;17.10;60.60;;;;;;5001133;28;20659;-62
2023/04/24 07:41:08;;;;;;;4.93;3.28;;;17.10;60.70;;;;;;4996939;28;20077;-62
2023/04/24 07:43:34;;;;;;;5.20;3.40;;;17.00;60.90;;;;;;5003625;28;22920;-62
2023/04/24 07:46:00;;;;;;;5.03;3.40;;;17.00;60.70;;;;;;5004491;28;20036;-64
2023/04/24 07:48:26;;;;;;;3.97;3.25;;;16.90;60.60;;;;;;5003014;28;20060;-63
2023/04/24 07:50:52;;;;;;;4.22;3.30;;;16.80;60.60;;;;;;5010229;28;20466;-63
2023/04/24 07:53:18;;;;;;;4.10;3.47;;;16.80;60.60;;;;;;5015933;28;20040;-65
2023/04/24 07:55:43;;;;;;;3.97;3.58;;;16.70;60.80;;;;;;5004152;28;20042;-64
2023/04/24 07:58:09;;;;;;;5.40;3.70;;;16.70;60.80;;;;;;5009384;28;20025;-64
2023/04/24 08:00:35;;;;;;;4.22;3.65;;;16.60;61.60;;;;;;4996443;28;20629;-63
2023/04/24 08:03:01;;;;;;;3.78;3.38;;;16.60;61.00;;;;;;5009157;28;20021;-63
2023/04/24 08:05:28;;;;;;;5.00;3.50;;;16.50;61.30;;;;;;5014983;28;20034;-64
2023/04/24 08:07:54;;;;;;;5.05;3.33;;;16.50;61.60;;;;;;5001510;28;20037;-65
2023/04/24 08:10:21;;;;;;;3.85;3.30;;;16.50;61.60;;;;;;5005525;28;20056;-64
2023/04/24 08:12:47;;;;;;;4.82;3.65;;;16.40;61.60;;;;;;5001647;28;20083;-63
2023/04/24 08:15:12;;;;;;;4.32;3.25;;;16.40;61.90;;;;;;5006678;28;20116;-63
2023/04/24 08:17:38;;;;;;;3.88;3.30;;;16.40;62.00;;;;;;5007217;28;20535;-62
2023/04/24 08:20:05;;;;;;;4.18;3.38;;;16.40;61.80;;;;;;5003948;28;20029;-63
2023/04/24 08:22:31;;;;;;;3.50;3.08;;;16.40;61.70;;;;;;5004089;28;20037;-64
2023/04/24 08:24:59;;;;;;;4.40;3.17;;;16.40;61.70;;;;;;4989673;28;20681;-62
2023/04/24 08:27:26;;;;;;;5.55;3.45;;;16.30;61.50;;;;;;4981840;28;22696;-63
2023/04/24 08:29:53;;;;;;;4.40;3.28;;;16.30;61.60;;;;;;5006801;28;20124;-64
2023/04/24 08:32:19;;;;;;;5.65;3.90;;;16.30;61.50;;;;;;4993670;28;20029;-62
2023/04/24 08:34:45;;;;;;;3.88;3.20;;;16.30;61.60;;;;;;5007285;28;20090;-64
2023/04/24 08:37:11;;;;;;;5.00;3.40;;;16.30;61.60;;;;;;5009722;28;20506;-63
2023/04/24 08:39:37;;;;;;;4.32;3.63;;;16.30;61.70;;;;;;5010065;28;20044;-64
2023/04/24 08:42:07;;;;;;;3.83;3.28;;;16.30;61.70;;;;;;5010666;28;20049;-63
2023/04/24 08:44:34;;;;;;;3.85;3.33;;;16.30;61.80;;;;;;5004832;28;20091;-62
2023/04/24 08:47:01;;;;;;;4.68;3.45;;;16.20;61.70;;;;;;5013967;28;20049;-64
2023/04/24 08:49:29;;;;;;;4.13;3.55;;;16.20;61.50;;;;;;5008251;28;20208;-64
2023/04/24 08:51:55;;;;;;;4.15;3.20;;;16.20;61.50;;;;;;5006240;28;20040;-64
2023/04/24 08:54:21;;;;;;;4.22;3.30;;;16.20;61.30;;;;;;5005220;28;20051;-63
2023/04/24 08:56:48;;;;;;;6.13;3.42;;;16.20;61.10;;;;;;5015051;28;20034;-63
2023/04/24 08:59:15;;;;;;;3.60;3.30;;;16.20;61.00;;;;;;5014005;28;20104;-62
2023/04/24 09:01:42;;;;;;;4.03;3.03;;;16.10;61.00;;;;;;5003644;28;20072;-62
2023/04/24 09:04:13;;;;;;;5.72;3.30;;;16.10;60.90;;;;;;5021992;28;20037;-65
2023/04/24 09:06:39;;;;;;;5.22;3.53;;;16.10;61.00;;;;;;5017314;28;20747;-64
2023/04/24 09:09:05;;;;;;;4.28;3.42;;;16.10;61.10;;;;;;5001186;28;20041;-64
2023/04/24 09:11:34;;;;;;;4.32;3.25;;;16.10;61.10;;;;;;5002623;28;20048;-63
2023/04/24 09:14:01;;;;;;;3.60;3.30;;;16.00;61.20;;;;;;5004101;28;20033;-64
2023/04/24 09:16:27;;;;;;;4.80;3.70;;;16.00;61.30;;;;;;5001731;28;20461;-64
2023/04/24 09:18:53;;;;;;;5.55;3.58;;;16.00;62.20;;;;;;5019311;28;20083;-63
2023/04/24 09:21:22;;;;;;;5.60;3.60;;;16.00;61.50;;;;;;5010399;28;20037;-62
2023/04/24 09:23:59;;;;;;;3.70;3.30;;;16.00;61.80;;;;;;4993968;28;20136;-65
2023/04/24 09:26:25;;;;;;;4.65;3.80;;;15.90;62.00;;;;;;5010357;28;20038;-62
2023/04/24 09:28:50;;;;;;;4.70;3.40;;;15.80;62.20;;;;;;5002028;28;20087;-62
2023/04/24 09:31:18;;;;;;;4.85;3.55;;;15.70;62.50;;;;;;5004392;28;20040;-62
2023/04/24 09:34:21;;;;;;;4.70;3.67;;;15.70;62.90;;;;;;5004371;28;20029;-63
2023/04/24 09:36:46;;;;;;;5.47;3.58;;;15.60;62.60;;;;;;4994372;28;20048;-64
2023/04/24 09:39:19;;;;;;;4.15;3.58;;;15.60;62.70;;;;;;5009103;28;20042;-64
2023/04/24 09:41:47;;;;;;;4.45;3.65;;;15.60;62.80;;;;;;5000408;28;20050;-63
2023/04/24 09:44:21;;;;;;;5.82;3.85;;;15.70;62.80;;;;;;5011005;28;20034;-65
2023/04/24 09:47:09;;;;;;;4.47;3.10;;;15.70;62.50;;;;;;5007408;28;20033;-64
2023/04/24 09:49:38;;;;;;;4.72;3.35;;;15.70;62.40;;;;;;5002748;28;20747;-63
2023/04/24 09:52:06;;;;;;;4.63;3.70;;;15.70;62.50;;;;;;5008956;28;20029;-63
2023/04/24 09:54:33;;;;;;;4.88;3.90;;;15.70;62.60;;;;;;5005007;28;20492;-62
2023/04/24 09:56:59;;;;;;;4.95;3.70;;;15.60;62.60;;;;;;5010752;28;20651;-61
2023/04/24 09:59:25;;;;;;;5.05;3.60;;;15.60;62.60;;;;;;5004725;28;20087;-62
2023/04/24 10:01:52;;;;;;;4.15;3.50;;;15.60;62.50;;;;;;5002324;28;20064;-61
2023/04/24 10:04:26;;;;;;;4.10;3.50;;;15.50;62.20;;;;;;4999426;28;20116;-59
2023/04/24 10:06:54;;;;;;;4.43;3.50;;;15.50;62.20;;;;;;4997433;28;20037;-60
2023/04/24 10:09:22;;;;;;;4.63;3.70;;;15.50;62.00;;;;;;5013589;28;20783;-59
2023/04/24 10:11:50;;;;;;;5.38;3.67;;;15.50;61.90;;;;;;5002533;28;20111;-63
2023/04/24 10:14:18;;;;;;;4.63;3.63;;;15.60;61.80;;;;;;5010349;28;20068;-62
2023/04/24 10:16:46;;;;;;;4.35;3.55;;;15.60;61.80;;;;;;5007811;28;20033;-60
2023/04/24 10:19:13;;;;;;;4.72;3.40;;;15.60;61.70;;;;;;5019945;28;21330;-62
2023/04/24 10:21:46;;;;;;;6.30;3.58;;;15.60;61.70;;;;;;5009274;28;20538;-62
2023/04/24 10:24:16;;;;;;;3.83;3.28;;;15.60;61.40;;;;;;5007614;28;20140;-60
2023/04/24 10:26:43;;;;;;;3.85;3.20;;;15.60;61.20;;;;;;5011546;28;20534;-61
2023/04/24 10:29:12;;;;;;;4.88;3.67;;;15.60;61.30;;;;;;5014762;28;20124;-60
2023/04/24 10:31:38;;;;;;;4.53;3.47;;;15.60;61.10;;;;;;5015238;28;20077;-60
2023/04/24 10:34:09;;;;;;;4.13;3.30;;;15.60;61.10;;;;;;5012706;28;20040;-61
2023/04/24 10:36:38;;;;;;;3.72;3.15;;;15.70;60.90;;;;;;5017238;28;20025;-61
2023/04/24 10:39:08;;;;;;;5.53;3.60;;;15.70;61.00;;;;;;5016605;28;21056;-61
2023/04/24 10:41:37;;;;;;;4.80;3.70;;;15.70;61.00;;;;;;5016545;28;20081;-62
2023/04/24 10:44:13;;;;;;;4.32;3.75;;;15.70;61.00;;;;;;5018994;28;20144;-61
2023/04/24 10:46:44;;;;;;;6.95;3.70;;;15.80;61.60;;;;;;5027290;28;20046;-59
2023/04/24 10:49:09;;;;;;;4.45;3.80;;;15.80;61.10;;;;;;5015948;28;20729;-59
2023/04/24 10:51:48;;;;;;;3.88;3.42;;;15.80;61.00;;;;;;5010377;28;20060;-59
2023/04/24 10:54:40;;;;;;;4.20;3.38;;;15.80;60.70;;;;;;5009896;28;20152;-58
2023/04/24 10:57:21;;;;;;;3.42;2.55;;;15.90;60.50;;;;;;5013061;28;20041;-59
2023/04/24 11:00:20;;;;;;;3.10;2.28;;;15.90;59.60;;;;;;5006598;28;20032;-57
2023/04/24 11:02:52;;;;;;;2.63;2.13;;;16.00;58.50;;;;;;5006954;28;20589;-55
2023/04/24 11:05:20;;;;;;;3.03;2.60;;;16.00;58.00;;;;;;5000680;28;20092;-62
2023/04/24 11:08:27;;;;;;;3.20;2.80;;;16.10;57.50;;;;;;5002038;28;20671;-61
2023/04/24 11:11:03;;;;;;;4.30;2.97;;;16.10;57.60;;;;;;5027377;28;23039;-62
2023/04/24 11:13:54;;;;;;;4.97;2.90;;;16.20;57.70;;;;;;5016934;28;20396;-62
2023/04/24 11:16:23;;;;;;;3.25;2.78;;;16.20;57.60;;;;;;5010844;28;20048;-61
2023/04/24 11:19:00;;;;;;;3.25;2.90;;;16.30;57.80;;;;;;5011591;28;20033;-61
2023/04/24 11:21:31;;;;;;;3.20;2.90;;;16.30;58.70;;;;;;5012494;28;20037;-62
2023/04/24 11:23:57;;;;;;;3.30;2.95;;;16.30;58.10;;;;;;5009788;28;20033;-64
2023/04/24 11:26:30;;;;;;;4.25;3.30;;;16.30;58.30;;;;;;5013175;28;20052;-63
2023/04/24 11:29:07;;;;;;;3.10;2.70;;;16.30;58.60;;;;;;5010963;28;20071;-62
2023/04/24 11:31:41;;;;;;;3.72;2.80;;;16.40;59.20;;;;;;5006402;28;20096;-62
2023/04/24 11:34:14;;;;;;;3.95;3.03;;;16.40;59.00;;;;;;5011733;28;20049;-62
2023/04/24 11:36:44;;;;;;;2.95;2.65;;;16.40;59.20;;;;;;5008397;28;20030;-63
2023/04/24 11:39:12;;;;;;;3.57;2.80;;;16.40;58.80;;;;;;5012169;28;20111;-63
2023/04/24 11:41:38;;;;;;;4.18;3.10;;;16.40;58.50;;;;;;5020866;28;20377;-61
2023/04/24 11:44:06;;;;;;;4.05;3.00;;;16.40;58.40;;;;;;5012819;28;20388;-62
2023/04/24 11:46:32;;;;;;;3.30;3.00;;;16.50;58.60;;;;;;5020903;28;20427;-64
2023/04/24 11:48:59;;;;;;;3.60;2.83;;;16.50;58.50;;;;;;5014196;28;20128;-62
2023/04/24 11:51:27;;;;;;;4.18;3.20;;;16.50;58.10;;;;;;5017033;28;20120;-62
2023/04/24 11:53:56;;;;;;;4.07;3.17;;;16.60;58.00;;;;;;5012655;28;20558;-62
2023/04/24 11:56:24;;;;;;;3.08;2.78;;;16.60;58.10;;;;;;5016144;28;20200;-63
2023/04/24 11:58:53;;;;;;;4.43;3.35;;;16.50;58.00;;;;;;5005783;28;20049;-62
2023/04/24 12:01:19;;;;;;;4.50;3.67;;;16.50;57.80;;;;;;5008466;28;20025;-61
2023/04/24 12:03:49;;;;;;;4.50;3.50;;;16.50;57.70;;;;;;5000900;28;20475;-62
2023/04/24 12:06:14;;;;;;;4.78;3.50;;;16.50;57.80;;;;;;5016443;28;20112;-62
2023/04/24 12:08:40;;;;;;;4.05;3.40;;;16.40;57.70;;;;;;5012587;28;20059;-62
2023/04/24 12:11:07;;;;;;;4.78;3.70;;;16.40;57.80;;;;;;5020630;28;20033;-62
2023/04/24 12:13:33;;;;;;;5.38;3.70;;;16.40;57.30;;;;;;5000260;28;20034;-60
2023/04/24 12:16:01;;;;;;;5.20;3.70;;;16.40;57.30;;;;;;5001006;28;20042;-61
2023/04/24 12:18:27;;;;;;;4.10;3.30;;;16.40;57.40;;;;;;5003941;28;20892;-63
2023/04/24 12:20:53;;;;;;;4.18;3.33;;;16.30;57.30;;;;;;5003636;28;20037;-62
2023/04/24 12:23:37;;;;;;;4.95;3.50;;;16.30;57.10;;;;;;5010108;28;20390;-61
2023/04/24 12:26:06;;;;;;;3.67;3.10;;;16.40;57.00;;;;;;4992569;28;20052;-64
2023/04/24 12:28:36;;;;;;;3.78;3.25;;;16.40;57.10;;;;;;5003333;28;20037;-65
2023/04/24 12:31:02;;;;;;;3.50;3.10;;;16.40;57.00;;;;;;5015929;28;20100;-63
2023/04/24 12:33:32;;;;;;;4.55;3.30;;;16.40;56.70;;;;;;5010054;28;20034;-63
2023/04/24 12:35:57;;;;;;;4.55;3.38;;;16.40;56.60;;;;;;5012622;28;20087;-64
2023/04/24 12:38:26;;;;;;;6.50;3.88;;;16.40;56.60;;;;;;5007938;28;20033;-63
2023/04/24 12:41:14;;;;;;;4.95;3.80;;;16.40;56.50;;;;;;5012625;28;20034;-64
2023/04/24 12:43:54;;;;;;;4.68;3.50;;;16.50;56.40;;;;;;5006561;28;20030;-62
2023/04/24 12:46:20;;;;;;;5.30;3.50;;;16.50;56.30;;;;;;5001518;28;20041;-62